Time;durP1;ratioP1;P1;durP2;ratioP2;P2;SDS_P1;SDS_P2;PMS_P1;PMS_P2;Temp;Humidity;BMP_temperature;BMP_pressure;BME280_temperature;BME280_humidity;BME280_pressure;Samples;Min_cycle;Max_cycle;Signal;HPM_P1;HPM_P2
2021/05/13 00:00:00;;;;;;;4.70;2.47;;;18.40;74.60;;;;;;5022315;28;20025;-70
2021/05/13 00:02:26;;;;;;;5.45;3.00;;;18.30;74.40;;;;;;5025207;28;20030;-67
2021/05/13 00:04:53;;;;;;;5.63;3.05;;;18.30;74.20;;;;;;5022442;28;20021;-66
2021/05/13 00:07:19;;;;;;;5.35;2.25;;;18.30;74.10;;;;;;5023221;28;20029;-67
2021/05/13 00:09:47;;;;;;;7.80;2.70;;;18.30;74.10;;;;;;5024931;28;20066;-68
2021/05/13 00:12:27;;;;;;;14.55;4.55;;;18.30;74.00;;;;;;5022892;28;20049;-67
2021/05/13 00:14:54;;;;;;;8.07;2.45;;;18.30;73.80;;;;;;5021735;28;20022;-67
2021/05/13 00:17:21;;;;;;;10.20;3.03;;;18.30;73.80;;;;;;5021574;28;20624;-69
2021/05/13 00:19:47;;;;;;;8.50;2.42;;;18.30;73.70;;;;;;5024475;28;20087;-67
2021/05/13 00:22:14;;;;;;;9.52;3.58;;;18.20;73.60;;;;;;5021382;28;20009;-67
2021/05/13 00:24:40;;;;;;;6.20;2.45;;;18.20;73.50;;;;;;5025140;28;20018;-67
2021/05/13 00:27:08;;;;;;;8.43;2.50;;;18.20;73.40;;;;;;5019747;28;20466;-69
2021/05/13 00:29:34;;;;;;;7.72;2.67;;;18.20;73.40;;;;;;5040155;28;20417;-68
2021/05/13 00:32:01;;;;;;;6.60;1.95;;;18.20;74.10;;;;;;5026579;28;20049;-67
2021/05/13 00:34:27;;;;;;;4.25;1.95;;;18.20;73.40;;;;;;5027044;28;20049;-68
2021/05/13 00:36:54;;;;;;;7.43;1.90;;;18.20;73.40;;;;;;5026037;28;20022;-67
2021/05/13 00:39:20;;;;;;;7.03;2.20;;;18.10;73.20;;;;;;5023731;28;20049;-66
2021/05/13 00:41:46;;;;;;;4.55;1.40;;;18.10;73.10;;;;;;5026842;28;20049;-66
2021/05/13 00:44:13;;;;;;;3.55;2.03;;;18.10;73.10;;;;;;5027784;28;20022;-66
2021/05/13 00:46:39;;;;;;;10.02;3.28;;;18.10;73.10;;;;;;5027399;28;20021;-67
2021/05/13 00:49:09;;;;;;;10.02;3.22;;;18.10;73.10;;;;;;5025011;28;20053;-68
2021/05/13 00:51:36;;;;;;;10.68;4.07;;;18.10;73.00;;;;;;5026854;28;20030;-67
2021/05/13 00:54:04;;;;;;;9.40;4.38;;;18.10;73.00;;;;;;5027123;28;20078;-66
2021/05/13 00:56:31;;;;;;;14.27;5.57;;;18.00;72.60;;;;;;5026417;28;20578;-67
2021/05/13 00:59:02;;;;;;;14.65;5.10;;;18.00;72.50;;;;;;5025984;28;20029;-67
2021/05/13 01:01:50;;;;;;;11.70;4.60;;;18.00;72.30;;;;;;5022811;28;20026;-67
2021/05/13 01:04:20;;;;;;;13.07;5.15;;;18.00;71.90;;;;;;5026354;28;20052;-67
2021/05/13 01:06:48;;;;;;;12.88;4.63;;;18.00;71.50;;;;;;5023819;28;20457;-68
2021/05/13 01:09:26;;;;;;;6.10;3.50;;;17.90;71.10;;;;;;5029129;28;20021;-66
2021/05/13 01:11:56;;;;;;;6.55;3.83;;;17.90;71.00;;;;;;5021857;28;20124;-66
2021/05/13 01:14:38;;;;;;;11.02;3.88;;;17.90;70.80;;;;;;5024761;28;20024;-66
2021/05/13 01:19:48;;;;;;;11.70;4.05;;;17.90;70.40;;;;;;5023189;28;20392;-69
2021/05/13 01:22:16;;;;;;;7.93;5.00;;;17.90;70.20;;;;;;5024071;28;20080;-68
2021/05/13 01:24:43;;;;;;;6.07;3.50;;;17.80;70.00;;;;;;5020442;28;20025;-67
2021/05/13 01:27:10;;;;;;;9.98;3.83;;;17.80;69.80;;;;;;5025856;28;20044;-67
2021/05/13 01:29:44;;;;;;;12.75;4.53;;;17.80;69.80;;;;;;5028424;28;20025;-71
2021/05/13 01:32:10;;;;;;;8.43;4.45;;;17.80;69.70;;;;;;5024211;28;20065;-67
2021/05/13 01:34:37;;;;;;;10.48;4.90;;;17.80;69.70;;;;;;5025638;28;20101;-67
2021/05/13 01:37:04;;;;;;;6.60;3.60;;;17.70;69.70;;;;;;5025999;28;20476;-66
2021/05/13 01:39:30;;;;;;;8.98;4.07;;;17.80;69.90;;;;;;5026883;28;20018;-69
2021/05/13 01:41:57;;;;;;;5.70;4.15;;;17.70;70.00;;;;;;5023847;28;20025;-67
2021/05/13 01:44:24;;;;;;;8.82;4.85;;;17.70;70.10;;;;;;5021154;28;20025;-67
2021/05/13 01:46:51;;;;;;;6.95;4.15;;;17.70;70.70;;;;;;5019664;28;20022;-66
2021/05/13 01:49:21;;;;;;;8.07;4.82;;;17.70;70.50;;;;;;5018010;28;20619;-67
2021/05/13 01:51:48;;;;;;;8.27;4.47;;;17.70;70.70;;;;;;5024567;28;20470;-66
2021/05/13 01:54:18;;;;;;;7.07;4.95;;;17.70;70.90;;;;;;5019053;28;20071;-66
2021/05/13 01:56:45;;;;;;;7.32;4.82;;;17.70;71.10;;;;;;5021331;28;20478;-67
2021/05/13 01:59:12;;;;;;;9.48;5.25;;;17.70;71.30;;;;;;5020114;28;20018;-66
2021/05/13 02:01:38;;;;;;;9.15;5.18;;;17.70;71.50;;;;;;5025612;28;20025;-67
2021/05/13 02:04:05;;;;;;;7.95;5.28;;;17.70;71.70;;;;;;5022314;28;20025;-69
2021/05/13 02:06:32;;;;;;;6.82;4.93;;;17.70;72.00;;;;;;5019512;28;20622;-69
2021/05/13 02:08:58;;;;;;;8.80;5.03;;;17.70;72.10;;;;;;5027591;28;20362;-67
2021/05/13 02:11:25;;;;;;;6.72;4.57;;;17.70;72.20;;;;;;5025587;28;20044;-71
2021/05/13 02:13:51;;;;;;;5.47;3.70;;;17.60;72.30;;;;;;5026133;28;20045;-68
2021/05/13 02:16:18;;;;;;;4.88;4.47;;;17.70;72.30;;;;;;5024696;28;20021;-66
2021/05/13 02:18:44;;;;;;;5.00;4.50;;;17.70;72.40;;;;;;5056934;28;20447;-67
2021/05/13 02:21:11;;;;;;;6.40;4.10;;;17.60;72.30;;;;;;5026254;28;20100;-66
2021/05/13 02:23:38;;;;;;;5.22;3.92;;;17.60;72.40;;;;;;5024064;28;20026;-68
2021/05/13 02:26:04;;;;;;;4.60;3.67;;;17.60;72.50;;;;;;5026508;28;20017;-67
2021/05/13 02:28:31;;;;;;;4.72;4.22;;;17.60;72.60;;;;;;5024333;28;20483;-67
2021/05/13 02:30:57;;;;;;;5.25;4.63;;;17.60;72.80;;;;;;5025724;28;20393;-69
2021/05/13 02:33:24;;;;;;;4.20;3.70;;;17.60;73.00;;;;;;5024208;28;20370;-66
2021/05/13 02:35:51;;;;;;;5.07;3.20;;;17.60;73.20;;;;;;5028262;28;20017;-67
2021/05/13 02:38:17;;;;;;;4.43;3.63;;;17.60;73.40;;;;;;5028409;28;20024;-67
2021/05/13 02:40:43;;;;;;;9.00;5.75;;;17.60;73.60;;;;;;5022240;28;20025;-66
2021/05/13 02:43:10;;;;;;;9.48;8.48;;;17.60;73.70;;;;;;5024984;28;20484;-67
2021/05/13 02:45:36;;;;;;;10.63;7.47;;;17.60;73.90;;;;;;5024378;28;20022;-67
2021/05/13 02:48:03;;;;;;;8.82;5.97;;;17.60;73.90;;;;;;5026264;28;20439;-67
2021/05/13 02:50:30;;;;;;;5.25;4.75;;;17.60;73.90;;;;;;5028466;28;20375;-67
2021/05/13 02:52:56;;;;;;;6.90;3.88;;;17.60;73.90;;;;;;5020971;28;20498;-68
2021/05/13 02:55:24;;;;;;;4.68;3.38;;;17.60;74.50;;;;;;5024929;28;20557;-66
2021/05/13 02:57:50;;;;;;;3.95;3.10;;;17.60;73.70;;;;;;5027073;28;20082;-66
2021/05/13 03:00:48;;;;;;;3.90;2.67;;;17.60;73.60;;;;;;5026889;28;20028;-67
2021/05/13 03:03:06;;;;;;;6.60;2.67;;;17.60;73.50;;;;;;5023615;28;20029;-67
2021/05/13 03:05:33;;;;;;;3.65;2.10;;;17.60;73.40;;;;;;5025850;28;20072;-67
2021/05/13 03:08:02;;;;;;;7.05;2.13;;;17.50;73.20;;;;;;5022641;28;20026;-67
2021/05/13 03:10:36;;;;;;;4.68;2.17;;;17.50;73.10;;;;;;5024668;28;20025;-67
2021/05/13 03:13:04;;;;;;;2.85;2.20;;;17.50;73.10;;;;;;5025022;28;20125;-67
2021/05/13 03:15:30;;;;;;;3.30;2.15;;;17.50;73.00;;;;;;5022191;28;20022;-67
2021/05/13 03:17:57;;;;;;;3.95;2.20;;;17.50;73.00;;;;;;5025117;28;20025;-66
2021/05/13 03:20:28;;;;;;;5.30;2.30;;;17.50;73.00;;;;;;5024222;28;20025;-69
2021/05/13 03:22:57;;;;;;;4.47;2.72;;;17.50;73.00;;;;;;5026287;28;20026;-68
2021/05/13 03:25:29;;;;;;;6.85;2.55;;;17.50;72.90;;;;;;5022744;28;20049;-67
2021/05/13 03:28:07;;;;;;;4.43;2.63;;;17.40;72.90;;;;;;5024803;28;20112;-68
2021/05/13 03:30:35;;;;;;;4.60;2.58;;;17.40;73.00;;;;;;5021912;28;20029;-67
2021/05/13 03:33:01;;;;;;;3.83;2.20;;;17.40;73.00;;;;;;5020526;28;20508;-66
2021/05/13 03:35:28;;;;;;;4.75;2.35;;;17.40;73.00;;;;;;5022170;28;20032;-67
2021/05/13 03:37:54;;;;;;;4.07;2.45;;;17.40;73.10;;;;;;5021835;28;20025;-68
2021/05/13 03:40:21;;;;;;;3.67;2.03;;;17.40;73.20;;;;;;5024755;28;20497;-67
2021/05/13 03:42:48;;;;;;;5.60;2.33;;;17.40;73.20;;;;;;5025758;28;20416;-67
2021/05/13 03:45:16;;;;;;;5.53;2.20;;;17.30;73.20;;;;;;5024463;28;20459;-67
2021/05/13 03:47:43;;;;;;;7.18;1.70;;;17.30;73.20;;;;;;5025313;28;20029;-67
2021/05/13 03:50:10;;;;;;;3.97;2.33;;;17.30;73.30;;;;;;5027070;28;20009;-67
2021/05/13 03:52:39;;;;;;;3.15;1.92;;;17.40;73.40;;;;;;5021740;28;20056;-67
2021/05/13 03:55:06;;;;;;;8.02;5.03;;;17.30;73.40;;;;;;5025491;28;20013;-71
2021/05/13 03:57:33;;;;;;;14.45;8.95;;;17.30;73.60;;;;;;5024934;28;20029;-66
2021/05/13 04:00:05;;;;;;;16.17;13.80;;;17.30;73.60;;;;;;5022288;28;20022;-67
2021/05/13 04:02:34;;;;;;;14.48;9.85;;;17.30;73.80;;;;;;5025316;28;20013;-68
2021/05/13 04:05:02;;;;;;;10.85;6.85;;;17.30;74.00;;;;;;5027144;28;20070;-67
2021/05/13 04:07:35;;;;;;;8.15;5.70;;;17.30;74.20;;;;;;5025416;28;20048;-73
2021/05/13 04:10:06;;;;;;;7.75;4.45;;;17.30;74.40;;;;;;5021398;28;20485;-69
2021/05/13 04:12:35;;;;;;;5.63;3.38;;;17.30;74.30;;;;;;5023264;28;20163;-68
2021/05/13 04:15:09;;;;;;;14.45;8.30;;;17.30;74.40;;;;;;5024390;28;20555;-70
2021/05/13 04:17:37;;;;;;;14.75;10.82;;;17.30;74.40;;;;;;5025443;28;20033;-66
2021/05/13 04:20:06;;;;;;;11.25;7.75;;;17.30;74.40;;;;;;5023603;28;20021;-69
2021/05/13 04:22:32;;;;;;;8.60;5.38;;;17.20;74.30;;;;;;5023786;28;20125;-68
2021/05/13 04:24:59;;;;;;;6.53;4.80;;;17.20;74.40;;;;;;5022648;28;20046;-70
2021/05/13 04:27:25;;;;;;;4.53;3.53;;;17.30;74.40;;;;;;5024296;28;20072;-68
2021/05/13 04:29:52;;;;;;;9.02;3.85;;;17.20;74.30;;;;;;5020569;28;20037;-69
2021/05/13 04:32:18;;;;;;;7.65;3.85;;;17.20;74.60;;;;;;5019327;28;20053;-77
2021/05/13 04:34:45;;;;;;;5.38;3.78;;;17.20;74.40;;;;;;5023097;28;20502;-72
2021/05/13 04:37:11;;;;;;;7.10;4.15;;;17.20;74.30;;;;;;5025571;28;20025;-68
2021/05/13 04:39:38;;;;;;;5.97;4.07;;;17.20;74.20;;;;;;5025409;28;20022;-70
2021/05/13 04:42:05;;;;;;;9.52;5.57;;;17.20;73.90;;;;;;5019872;28;20091;-68
2021/05/13 04:44:33;;;;;;;8.98;5.38;;;17.10;74.40;;;;;;5022970;28;20052;-68
2021/05/13 04:47:10;;;;;;;8.90;5.28;;;17.20;73.80;;;;;;5016793;28;20028;-68
2021/05/13 04:49:37;;;;;;;8.32;4.88;;;17.10;73.50;;;;;;5019774;28;20028;-68
2021/05/13 04:52:03;;;;;;;8.02;4.38;;;17.10;73.50;;;;;;5020183;28;20018;-68
2021/05/13 04:54:30;;;;;;;5.38;4.28;;;17.10;73.50;;;;;;5024800;28;20044;-67
2021/05/13 04:56:59;;;;;;;6.30;3.92;;;17.10;73.40;;;;;;5020761;28;20024;-69
2021/05/13 04:59:26;;;;;;;7.57;3.80;;;17.10;73.40;;;;;;5019380;28;20021;-70
2021/05/13 05:01:52;;;;;;;10.48;4.72;;;17.10;73.40;;;;;;5021644;28;20389;-69
2021/05/13 05:04:19;;;;;;;6.32;4.05;;;17.10;74.00;;;;;;5022353;28;20064;-71
2021/05/13 05:06:46;;;;;;;6.53;3.15;;;17.10;73.30;;;;;;5014877;28;20025;-70
2021/05/13 05:09:12;;;;;;;5.57;3.95;;;17.10;73.20;;;;;;5017480;28;20022;-70
2021/05/13 05:11:39;;;;;;;7.22;3.50;;;17.00;73.20;;;;;;5019419;28;20049;-71
2021/05/13 05:14:06;;;;;;;6.82;3.20;;;17.00;73.20;;;;;;5024821;28;20044;-73
2021/05/13 05:16:32;;;;;;;5.55;3.03;;;17.00;73.30;;;;;;5020759;28;20068;-70
2021/05/13 05:18:59;;;;;;;9.10;3.97;;;17.00;73.50;;;;;;5026152;28;20052;-71
2021/05/13 05:21:25;;;;;;;7.80;3.63;;;17.00;73.60;;;;;;5025506;28;20024;-71
2021/05/13 05:23:52;;;;;;;6.35;4.15;;;17.00;73.70;;;;;;5026464;28;20049;-71
2021/05/13 05:26:18;;;;;;;5.78;2.78;;;17.00;73.90;;;;;;5020135;28;20018;-68
2021/05/13 05:28:45;;;;;;;6.35;2.97;;;17.00;74.00;;;;;;5022977;28;20029;-70
2021/05/13 05:31:11;;;;;;;9.18;3.20;;;17.00;74.10;;;;;;5019122;28;20451;-68
2021/05/13 05:33:38;;;;;;;5.45;2.78;;;17.00;74.20;;;;;;5022372;28;20050;-72
2021/05/13 05:36:05;;;;;;;5.38;3.35;;;17.00;74.20;;;;;;5052573;28;20044;-73
2021/05/13 05:38:31;;;;;;;7.82;4.15;;;17.00;74.20;;;;;;5024214;28;20013;-68
2021/05/13 05:40:58;;;;;;;8.30;3.72;;;17.00;74.30;;;;;;5027953;28;20077;-69
2021/05/13 05:43:24;;;;;;;9.00;3.45;;;17.00;74.40;;;;;;5026997;28;20040;-70
2021/05/13 05:45:51;;;;;;;6.22;3.08;;;17.00;74.50;;;;;;5029373;28;20022;-71
2021/05/13 05:48:18;;;;;;;7.47;2.75;;;17.00;74.50;;;;;;5027746;28;20041;-70
2021/05/13 05:50:44;;;;;;;10.38;3.78;;;17.00;74.60;;;;;;5026207;28;20022;-71
2021/05/13 05:53:12;;;;;;;5.47;3.05;;;17.00;74.80;;;;;;5025256;28;20032;-67
2021/05/13 05:55:40;;;;;;;6.60;3.25;;;16.90;74.80;;;;;;5023159;28;20021;-73
2021/05/13 05:58:07;;;;;;;8.45;3.28;;;16.90;75.00;;;;;;5029721;28;20057;-70
2021/05/13 06:00:33;;;;;;;5.75;3.30;;;16.90;75.00;;;;;;5026063;28;20079;-68
2021/05/13 06:03:00;;;;;;;9.93;4.07;;;16.90;75.20;;;;;;5025919;28;20463;-70
2021/05/13 06:05:27;;;;;;;6.93;3.67;;;17.00;75.30;;;;;;5026195;28;20026;-72
2021/05/13 06:07:53;;;;;;;7.60;4.13;;;17.00;75.30;;;;;;5022110;28;20113;-68
2021/05/13 06:10:20;;;;;;;8.00;4.93;;;17.00;75.40;;;;;;5027921;28;20112;-70
2021/05/13 06:13:27;;;;;;;10.18;5.05;;;16.90;75.40;;;;;;5023887;28;20456;-68
2021/05/13 06:16:33;;;;;;;13.65;5.78;;;17.00;75.50;;;;;;5027134;28;20104;-70
2021/05/13 06:19:39;;;;;;;11.50;6.35;;;17.00;75.60;;;;;;5025944;28;20437;-70
2021/05/13 06:22:25;;;;;;;;;;;17.00;75.70;;;;;;5021770;28;20022;-67
2021/05/13 06:25:31;;;;;;;10.75;4.70;;;17.00;75.80;;;;;;5031038;28;19982;-69
2021/05/13 06:28:37;;;;;;;10.30;5.57;;;17.00;75.90;;;;;;5017959;28;20024;-69
2021/05/13 06:31:43;;;;;;;8.65;5.22;;;17.00;76.00;;;;;;5025779;28;20013;-70
2021/05/13 06:34:49;;;;;;;8.40;5.93;;;17.00;76.30;;;;;;5016496;28;20033;-70
2021/05/13 06:37:56;;;;;;;10.23;5.00;;;17.00;76.50;;;;;;5018978;28;20509;-70
2021/05/13 06:41:05;;;;;;;11.60;6.05;;;17.00;76.70;;;;;;5025406;28;20108;-68
2021/05/13 06:44:11;;;;;;;8.70;4.60;;;17.00;77.00;;;;;;5022407;28;20032;-70
2021/05/13 06:47:17;;;;;;;5.88;4.75;;;17.00;77.30;;;;;;5022497;28;20026;-69
2021/05/13 06:50:23;;;;;;;7.35;5.15;;;17.00;77.60;;;;;;5018929;28;20539;-69
2021/05/13 06:53:29;;;;;;;9.27;5.20;;;17.00;77.80;;;;;;5015624;28;20033;-67
2021/05/13 06:56:35;;;;;;;11.88;5.47;;;17.00;78.00;;;;;;5021837;28;20021;-69
2021/05/13 06:59:42;;;;;;;7.63;6.53;;;17.10;78.30;;;;;;5016642;28;20022;-68
2021/05/13 07:02:48;;;;;;;8.73;6.95;;;17.10;78.50;;;;;;5019824;28;20022;-69
2021/05/13 07:05:54;;;;;;;14.15;8.38;;;17.10;78.80;;;;;;5019922;28;20029;-68
2021/05/13 07:09:00;;;;;;;11.07;7.05;;;17.10;79.00;;;;;;5021260;28;20025;-68
2021/05/13 07:12:06;;;;;;;15.10;9.18;;;17.10;79.10;;;;;;5024050;28;20034;-68
2021/05/13 07:15:12;;;;;;;10.20;7.85;;;17.10;79.30;;;;;;5013608;28;20030;-68
2021/05/13 07:18:18;;;;;;;14.20;8.65;;;17.20;79.50;;;;;;5021677;28;20376;-68
2021/05/13 07:21:24;;;;;;;13.75;8.82;;;17.20;79.70;;;;;;5016809;28;20377;-68
2021/05/13 07:24:30;;;;;;;14.23;7.50;;;17.20;79.70;;;;;;5025438;28;20022;-68
2021/05/13 07:27:36;;;;;;;11.50;7.95;;;17.30;80.00;;;;;;5020132;28;20401;-67
2021/05/13 07:30:42;;;;;;;16.33;7.93;;;17.30;80.20;;;;;;5019130;28;20055;-68
2021/05/13 07:33:49;;;;;;;14.50;8.18;;;17.40;80.30;;;;;;5020713;28;20036;-69
2021/05/13 07:36:55;;;;;;;12.75;8.55;;;17.40;80.50;;;;;;5015905;28;20109;-70
2021/05/13 07:40:01;;;;;;;9.80;6.65;;;17.40;80.60;;;;;;5019197;28;20511;-70
2021/05/13 07:43:08;;;;;;;11.43;7.47;;;17.50;80.80;;;;;;5027984;28;20100;-69
2021/05/13 07:46:16;;;;;;;11.25;7.43;;;17.50;80.90;;;;;;5014625;28;20028;-68
2021/05/13 07:49:22;;;;;;;12.90;7.93;;;17.50;81.00;;;;;;5023447;28;20025;-68
2021/05/13 07:52:28;;;;;;;13.63;6.43;;;17.60;81.10;;;;;;5019398;28;20362;-67
2021/05/13 07:55:34;;;;;;;10.82;6.85;;;17.60;81.10;;;;;;5023434;28;20053;-68
2021/05/13 07:58:40;;;;;;;10.15;6.60;;;17.70;81.10;;;;;;5021761;28;20026;-68
2021/05/13 08:01:46;;;;;;;10.60;6.95;;;17.70;81.10;;;;;;5018667;28;20025;-68
2021/05/13 08:04:52;;;;;;;7.60;5.47;;;17.80;81.20;;;;;;5018563;28;20026;-68
2021/05/13 08:07:58;;;;;;;14.50;6.07;;;17.80;81.10;;;;;;5013930;28;20032;-68
2021/05/13 08:11:04;;;;;;;6.93;4.60;;;17.80;81.20;;;;;;5024699;28;20041;-68
2021/05/13 08:14:10;;;;;;;9.25;6.43;;;17.90;81.30;;;;;;5026220;28;20420;-68
2021/05/13 08:17:16;;;;;;;7.75;4.90;;;18.00;82.00;;;;;;5019293;28;20018;-68
2021/05/13 08:20:22;;;;;;;9.20;4.32;;;18.10;81.70;;;;;;5017232;28;20032;-68
2021/05/13 08:23:28;;;;;;;5.40;3.63;;;18.10;81.60;;;;;;5014646;28;20113;-68
2021/05/13 08:26:34;;;;;;;7.60;3.45;;;18.10;81.40;;;;;;5018141;28;20477;-67
2021/05/13 08:29:40;;;;;;;4.78;3.13;;;18.20;81.50;;;;;;5022992;28;20020;-68
2021/05/13 08:32:46;;;;;;;4.05;2.55;;;18.20;82.00;;;;;;5015577;28;20053;-69
2021/05/13 08:35:52;;;;;;;4.53;2.33;;;18.20;81.80;;;;;;5018983;28;20016;-68
2021/05/13 08:38:58;;;;;;;4.03;2.10;;;18.30;81.50;;;;;;5020695;28;20072;-68
2021/05/13 08:42:05;;;;;;;3.95;2.00;;;18.30;81.50;;;;;;5020320;28;20415;-68
2021/05/13 08:45:11;;;;;;;2.35;1.40;;;18.40;81.70;;;;;;5024473;28;20030;-67
2021/05/13 08:48:20;;;;;;;2.97;1.58;;;18.40;82.00;;;;;;5020990;28;20025;-68
2021/05/13 08:51:26;;;;;;;3.05;1.40;;;18.50;83.00;;;;;;5023332;28;20041;-68
2021/05/13 08:54:32;;;;;;;3.00;1.77;;;18.50;82.20;;;;;;5017356;28;20041;-68
2021/05/13 08:57:39;;;;;;;2.00;1.50;;;18.60;81.50;;;;;;5023061;28;20603;-71
2021/05/13 09:00:45;;;;;;;4.82;1.83;;;18.60;81.20;;;;;;5024092;28;20025;-69
2021/05/13 09:03:51;;;;;;;5.72;1.60;;;18.70;81.30;;;;;;5028950;28;20105;-69
2021/05/13 09:07:00;;;;;;;2.22;1.17;;;18.80;80.40;;;;;;5024350;28;20045;-69
2021/05/13 09:09:56;;;;;;;2.28;1.20;;;18.80;79.20;;;;;;5026643;28;20524;-68
2021/05/13 09:12:42;;;;;;;3.88;1.23;;;18.90;78.10;;;;;;5021290;28;20404;-68
2021/05/13 09:15:48;;;;;;;6.65;2.25;;;18.90;77.90;;;;;;5022925;28;20025;-69
2021/05/13 09:18:54;;;;;;;1.55;0.93;;;19.00;77.80;;;;;;5022646;28;20116;-68
2021/05/13 09:22:00;;;;;;;4.97;1.55;;;19.00;77.40;;;;;;5020040;28;20029;-68
2021/05/13 09:25:10;;;;;;;1.35;0.90;;;19.10;77.20;;;;;;5029938;28;20049;-70
2021/05/13 09:28:25;;;;;;;1.30;0.80;;;19.10;77.10;;;;;;5022048;28;20116;-68
2021/05/13 09:31:29;;;;;;;2.10;1.00;;;19.10;75.90;;;;;;5028414;28;20033;-67
2021/05/13 09:34:35;;;;;;;2.65;1.00;;;19.10;75.70;;;;;;5025731;28;20037;-67
2021/05/13 09:37:42;;;;;;;3.15;0.93;;;19.10;75.30;;;;;;5018918;28;20469;-68
2021/05/13 09:41:00;;;;;;;7.43;1.63;;;19.10;74.90;;;;;;5015709;28;20436;-68
2021/05/13 09:44:08;;;;;;;2.80;1.40;;;19.10;75.10;;;;;;5024126;28;20076;-67
2021/05/13 09:47:14;;;;;;;2.58;2.17;;;19.20;75.20;;;;;;5024642;28;20370;-68
2021/05/13 09:50:29;;;;;;;3.65;1.40;;;19.10;75.10;;;;;;5020472;28;20036;-68
2021/05/13 09:53:35;;;;;;;6.32;2.53;;;19.20;75.10;;;;;;5021613;28;20037;-68
2021/05/13 09:56:42;;;;;;;2.30;1.17;;;19.20;75.10;;;;;;5017212;28;20389;-67
2021/05/13 10:00:03;;;;;;;7.00;1.30;;;19.20;74.90;;;;;;5017593;28;20022;-67
2021/05/13 10:03:10;;;;;;;1.63;0.90;;;19.30;74.60;;;;;;5024136;28;20076;-68
2021/05/13 10:06:16;;;;;;;3.83;0.80;;;19.30;74.00;;;;;;5022341;28;20033;-68
2021/05/13 10:09:23;;;;;;;1.58;0.57;;;19.30;73.40;;;;;;5025661;28;20112;-67
2021/05/13 10:12:29;;;;;;;5.13;1.30;;;19.30;73.00;;;;;;5021904;28;20428;-68
2021/05/13 10:15:35;;;;;;;4.97;0.80;;;19.40;72.60;;;;;;5018001;28;20033;-68
2021/05/13 10:18:41;;;;;;;0.75;0.75;;;19.50;72.20;;;;;;5024077;28;20038;-68
2021/05/13 10:21:47;;;;;;;0.85;0.70;;;19.50;72.00;;;;;;5023946;28;20045;-67
2021/05/13 10:24:53;;;;;;;1.50;0.88;;;19.70;71.90;;;;;;5021410;28;20105;-68
2021/05/13 10:28:00;;;;;;;3.08;0.90;;;19.70;71.20;;;;;;5021534;28;20033;-67
2021/05/13 10:31:06;;;;;;;2.47;1.00;;;19.80;71.10;;;;;;5022923;28;20477;-69
2021/05/13 10:34:27;;;;;;;1.25;0.80;;;19.90;71.00;;;;;;5025272;28;20046;-68
2021/05/13 10:37:35;;;;;;;2.75;0.80;;;20.00;70.80;;;;;;5028406;28;20026;-67
2021/05/13 10:40:32;;;;;;;1.33;0.70;;;20.00;70.60;;;;;;5021596;28;20476;-67
2021/05/13 10:43:38;;;;;;;3.88;1.10;;;20.00;70.20;;;;;;5023218;28;20108;-67
2021/05/13 10:46:49;;;;;;;1.60;0.82;;;20.00;69.70;;;;;;5025597;28;20032;-68
2021/05/13 10:49:56;;;;;;;3.67;0.77;;;20.10;69.40;;;;;;5025144;28;20029;-69
2021/05/13 10:53:11;;;;;;;2.22;0.55;;;20.00;69.10;;;;;;5017364;28;20030;-67
2021/05/13 10:56:15;;;;;;;1.80;0.60;;;20.00;69.10;;;;;;5023732;28;20488;-67
2021/05/13 10:59:40;;;;;;;1.95;0.75;;;20.00;69.00;;;;;;5018373;28;20429;-67
2021/05/13 11:02:35;;;;;;;6.00;1.00;;;20.00;68.90;;;;;;5025120;28;20100;-68
2021/05/13 11:05:28;;;;;;;1.03;0.53;;;20.00;68.70;;;;;;5024139;28;20108;-67
2021/05/13 11:08:17;;;;;;;1.48;0.55;;;19.90;68.20;;;;;;5019650;28;20256;-68
2021/05/13 11:10:52;;;;;;;2.35;0.60;;;19.90;67.90;;;;;;5020126;28;20018;-67
2021/05/13 11:14:01;;;;;;;1.45;0.60;;;19.90;68.00;;;;;;5011465;28;20064;-67
2021/05/13 11:17:13;;;;;;;1.98;0.73;;;19.90;68.00;;;;;;5021502;28;20030;-67
2021/05/13 11:20:20;;;;;;;3.05;0.85;;;20.00;68.20;;;;;;5017380;28;20038;-68
2021/05/13 11:23:15;;;;;;;1.48;0.65;;;20.00;67.90;;;;;;5025688;28;20100;-68
2021/05/13 11:26:24;;;;;;;2.28;0.68;;;20.00;67.40;;;;;;5025148;28;20370;-69
2021/05/13 11:29:30;;;;;;;1.75;0.68;;;20.10;67.30;;;;;;5017859;28;20032;-68
2021/05/13 11:32:36;;;;;;;2.03;0.70;;;20.10;66.70;;;;;;5021816;28;20026;-68
2021/05/13 11:35:43;;;;;;;2.80;0.77;;;20.20;65.90;;;;;;5018530;28;20033;-68
2021/05/13 11:39:04;;;;;;;1.52;0.30;;;20.20;65.10;;;;;;5018168;28;20014;-68
2021/05/13 11:42:10;;;;;;;1.27;0.60;;;20.40;64.40;;;;;;5016265;28;20021;-67
2021/05/13 11:45:19;;;;;;;2.55;1.17;;;20.50;64.10;;;;;;5022798;28;20220;-67
2021/05/13 11:48:37;;;;;;;1.08;0.65;;;20.60;64.10;;;;;;5020249;28;20033;-67
2021/05/13 11:51:43;;;;;;;2.28;0.85;;;20.70;64.50;;;;;;5017879;28;20516;-67
2021/05/13 11:54:49;;;;;;;2.58;0.60;;;20.70;64.50;;;;;;5022141;28;20046;-67
2021/05/13 11:57:55;;;;;;;3.33;0.60;;;20.80;64.60;;;;;;5016658;28;20076;-70
2021/05/13 12:01:01;;;;;;;2.88;1.17;;;20.80;64.60;;;;;;5019905;28;20022;-68
2021/05/13 12:04:07;;;;;;;2.85;0.60;;;20.90;64.70;;;;;;5021586;28;20033;-67
2021/05/13 12:07:22;;;;;;;1.13;0.52;;;20.90;64.40;;;;;;5014579;28;20397;-67
2021/05/13 12:10:29;;;;;;;1.30;0.50;;;21.00;64.20;;;;;;5021117;28;20028;-67
2021/05/13 12:13:47;;;;;;;1.10;0.50;;;21.00;64.20;;;;;;5020609;28;20104;-68
2021/05/13 12:16:53;;;;;;;1.15;0.50;;;21.10;63.80;;;;;;5022830;28;20022;-68
2021/05/13 12:19:59;;;;;;;2.85;1.00;;;21.20;63.60;;;;;;5018410;28;20498;-69
2021/05/13 12:23:05;;;;;;;3.45;0.60;;;21.20;63.30;;;;;;5019001;28;20042;-67
2021/05/13 12:26:11;;;;;;;2.38;0.40;;;21.20;63.10;;;;;;5021998;28;20107;-67
2021/05/13 12:29:17;;;;;;;3.08;0.88;;;21.20;63.20;;;;;;5022463;28;20034;-68
2021/05/13 12:32:26;;;;;;;2.55;0.60;;;21.30;63.30;;;;;;5017143;28;20392;-67
2021/05/13 12:35:47;;;;;;;1.65;0.60;;;21.30;63.10;;;;;;5022846;28;20033;-67
2021/05/13 12:38:53;;;;;;;2.60;0.73;;;21.40;63.20;;;;;;5015954;28;20569;-67
2021/05/13 12:41:59;;;;;;;1.13;0.77;;;21.40;63.00;;;;;;5020562;28;20524;-68
2021/05/13 12:45:08;;;;;;;2.47;0.77;;;21.50;63.10;;;;;;5020353;28;20033;-67
2021/05/13 12:48:14;;;;;;;1.95;0.65;;;21.50;62.70;;;;;;5018763;28;20105;-68
2021/05/13 12:51:21;;;;;;;6.80;0.95;;;21.50;62.40;;;;;;5025601;28;20022;-68
2021/05/13 12:54:27;;;;;;;4.38;0.88;;;21.60;62.30;;;;;;5015068;28;20034;-67
2021/05/13 12:57:16;;;;;;;3.35;1.00;;;21.60;62.90;;;;;;5015504;28;20061;-68
2021/05/13 13:00:22;;;;;;;0.90;0.40;;;21.70;62.10;;;;;;5015435;28;20116;-68
2021/05/13 13:03:28;;;;;;;4.78;0.82;;;21.70;62.00;;;;;;5025685;28;20448;-68
2021/05/13 13:06:34;;;;;;;1.40;0.77;;;21.70;62.10;;;;;;5057143;28;20425;-68
2021/05/13 13:09:40;;;;;;;2.13;0.60;;;21.70;61.90;;;;;;5019160;28;20035;-68
2021/05/13 13:12:47;;;;;;;2.20;0.98;;;21.70;62.00;;;;;;5018772;28;20521;-68
2021/05/13 13:19:02;;;;;;;11.40;0.80;;;21.70;62.00;;;;;;5017476;28;20076;-68
2021/05/13 13:22:17;;;;;;;3.45;1.10;;;21.80;62.10;;;;;;5017698;28;20032;-68
2021/05/13 13:25:23;;;;;;;5.25;1.20;;;21.80;62.10;;;;;;5023352;28;20037;-67
2021/05/13 13:28:29;;;;;;;3.00;0.93;;;21.80;62.10;;;;;;5019061;28;20029;-67
2021/05/13 13:31:37;;;;;;;3.35;1.40;;;21.80;62.00;;;;;;5023136;28;20029;-68
2021/05/13 13:34:43;;;;;;;2.10;1.00;;;21.80;62.20;;;;;;5022865;28;20121;-68
2021/05/13 13:37:49;;;;;;;5.65;1.00;;;21.80;62.30;;;;;;5016330;28;20030;-68
2021/05/13 13:40:55;;;;;;;4.90;1.10;;;21.80;61.90;;;;;;5021532;28;20068;-69
2021/05/13 13:44:01;;;;;;;3.03;0.98;;;21.70;62.00;;;;;;5020435;28;20037;-68
2021/05/13 13:47:07;;;;;;;5.20;2.10;;;21.70;61.80;;;;;;5019708;28;20439;-68
2021/05/13 13:50:13;;;;;;;4.65;1.10;;;21.70;61.90;;;;;;5026833;28;20021;-67
2021/05/13 13:53:19;;;;;;;2.13;1.05;;;21.60;61.70;;;;;;5015022;28;20049;-68
2021/05/13 13:56:28;;;;;;;5.68;0.90;;;21.60;61.90;;;;;;5025411;28;20087;-68
2021/05/13 13:59:34;;;;;;;3.70;0.70;;;21.60;61.40;;;;;;5022464;28;20467;-68
2021/05/13 14:02:42;;;;;;;3.88;1.02;;;21.60;61.60;;;;;;5021173;28;20072;-68
2021/05/13 14:05:48;;;;;;;2.75;0.57;;;21.50;61.50;;;;;;5023352;28;20026;-68
2021/05/13 14:08:54;;;;;;;1.75;0.85;;;21.50;61.40;;;;;;5020267;28;20033;-67
2021/05/13 14:12:00;;;;;;;6.90;0.88;;;21.50;61.40;;;;;;5028718;28;20124;-67
2021/05/13 14:15:06;;;;;;;7.32;0.90;;;21.50;61.40;;;;;;5017289;28;20594;-67
2021/05/13 14:18:12;;;;;;;1.35;1.17;;;21.50;61.50;;;;;;5018015;28;20500;-67
2021/05/13 14:21:18;;;;;;;4.28;0.90;;;21.50;61.70;;;;;;5019445;28;20014;-71
2021/05/13 14:24:25;;;;;;;3.30;0.60;;;21.50;61.60;;;;;;5024916;28;20480;-69
2021/05/13 14:27:31;;;;;;;4.72;1.83;;;21.40;61.60;;;;;;5021009;28;20025;-68
2021/05/13 14:30:37;;;;;;;2.80;0.95;;;21.40;61.60;;;;;;5017819;28;20435;-69
2021/05/13 14:33:43;;;;;;;4.95;1.40;;;21.30;62.00;;;;;;5025831;28;20029;-68
2021/05/13 14:36:49;;;;;;;4.43;1.27;;;21.30;61.80;;;;;;5024281;28;20080;-68